Airfield :
LOGIN :

Register | Disclaimer

   EN    FR    IT 

 










Legend :    VFR   Marginal VFR   IFR   Intensive IFR   Very Intensive IFR
Visi :
Ceiling :
>= 8 km
>= 3000ft
5 to 8 km
1000 to 3000 ft
1500m to 5 km
500 to 1000 ft
800 to 1500m
200 to 500 ft
< 800m
< 200 ft
Symbols :   Thunderstorms  Fog  Heavy snow  Heavy precipitations  Wind > 20 kt
SIGMETs :     Misc.  Thunderstorms  Icing  Turbulence  Mountain Waves  Volcanic Ashes







- Airport Elevation : 443 ft
- IATA code : SQQ


EYSA - Siauliai

CURRENT METAR :
  • 191650Z 29002KT CAVOK 05/04 Q1023 BLU NOSIG

EXPIRED METARs :
  • 191620Z 31002KT CAVOK 06/04 Q1023 BLU NOSIG
  • 191550Z 33002KT CAVOK 07/04 Q1023 BLU NOSIG
  • 191520Z 01002KT CAVOK 09/05 Q1022 BLU NOSIG
  • 191450Z 02003KT CAVOK 10/05 Q1022 BLU NOSIG
  • 191420Z 02003KT CAVOK 11/05 Q1022 BLU NOSIG

TAF TAF EYSA
Valid from the 19 at 15:00 until the 20 at 00:00 UTC


191400Z 1915/1924 VRB04KT 7000 SCT020
BECMG 1919/1921 3000 BR BKN005
TEMPO 1921/1924 1000 BKN003
No reported NOTAMs for that airfield.



MET'MAP, your aeronautical weather chart ! - Copyright ORBIFLY December 2007 - Disclaimer

ORBIFLY MET'MAP TEAM :

Programming & Development : Alexandra Zaïnal
Concept & Development : Baudouin d'Aumeries
Co-Development & Prog : Marc-Olivier Méhu
Technical & hardware support : Manuel Goepfert

Contact : metmap@orbifly.com




SOURCES & CREDITS :

   NOAA